Aérodrome :
LOGIN :

S'inscrire | Disclaimer

   EN    FR    IT 

 










Légende :    VFR   VFR Marginal   IFR   IFR Intensif   IFR Très Intensif
Visi : 
Plafond : 
>= 8 km
>= 3000ft
5 à 8 km
1000 à 3000 ft
1500m à 5 km
500 à 1000 ft
800 à 1500m
200 à 500 ft
< 800m
< 200 ft
Symboles :   Orages  Brouillard  Fortes neiges  Fortes précipitations  Vent > 20 kt
SIGMETs :   Divers  Orages  Givrage  Turbulence  Onde Orograph.  Cendres Volcan.







- Altitude de l'aérodrome : 13 ft
- Code IATA : SNR
- Voir les cartes d'approche


LFRZ - St-Nazaire

DERNIER METAR :
  • 160700Z AUTO 07006KT 0400 0350 R25/0500N FG VV/// 09/09 Q1021 BECMG 2000 BR OVC004

METARs EXPIRÉS :
  • 160630Z AUTO 06005KT 0400 R25/0450N FG VV/// 09/08 Q1021 BECMG 2000 BR OVC004
  • 160600Z AUTO 06005KT 1000 R25/1200D BR VV/// 08/08 Q1021 TEMPO 0500 FG
  • 160530Z AUTO 04004KT 0550 R25/0800U FG VV/// 08/07 Q1020 TEMPO 0300 FG
  • 160500Z AUTO 05006KT 3300 R25/1100U BR NSC 08/08 Q1020 TEMPO 0300 FG VV///
  • 160430Z AUTO 07006KT 0400 0350 R25/0550U FG FEW005 07/06 Q1020 TEMPO 0300 FG VV///
  • 160400Z AUTO 05003KT 010V090 1100 1000 R25/1200D BR NSC 09/09 Q1020 TEMPO 0300 FG VV///

TAF TAF LFRZ
Valide du 16 à 06h jusqu'au 17 à 06h UTC


160500Z 1606/1706 07006KT 2000 BR NSC
TEMPO 1606/1608 0500 FG VV///
BECMG 1608/1610 OVC004
BECMG 1610/1612 9999 NSW BKN008
TEMPO 1612/1617 SCT013
BECMG 1617/1620 4000 BR OVC003
TEMPO 1620/1703 1500 BR OVC002
BECMG 1703/1706 6000 NSW OVC006
Pas de NOTAMs connus pour ce terrain.



MET'MAP, la Météo Aéronautique d'un coup d'oeil ! - Copyright ORBIFLY Décembre 2007 - Disclaimer

ORBIFLY MET'MAP TEAM :

Programmation & Développement : Alexandra Zaïnal
Conception & Développement : Baudouin d'Aumeries
Co-Programmation & Développement : Marc-Olivier Méhu
Soutien technique & logistique : Manuel Goepfert

Contact : metmap@orbifly.com




SOURCES & CREDITS :

   NOAA